This is the latest recevied weather packets stored in our database for station/object KC6UTR. If no packets are shown the sender has not sent any weather packets the latest 10 day(s).
| Time | Temp. | Humidity | Pressure | Rain* | Wind** | Luminosity | Snow |
|---|---|---|---|---|---|---|---|
| 1777295416 | 5° C | 73% | 1011.5 hPa | 0 mm | - | - | - |
| 1777289416 | 5.56° C | 72% | 1011.7 hPa | 0 mm | - | - | - |
| 1777284616 | 6.11° C | 66% | 1011.2 hPa | 0 mm | - | - | - |
| 1777282236 | 7.22° C | 64% | 1011.4 hPa | 0 mm | - | - | - |
| 1777281616 | 7.78° C | 64% | 1011.4 hPa | 0 mm | - | - | - |
| 1777281036 | 7.78° C | 63% | 1011.4 hPa | 0 mm | - | - | - |
| 1777278616 | 8.89° C | 60% | 1011.8 hPa | 0 mm | - | - | - |
| 1777278016 | 8.89° C | 60% | 1011.8 hPa | 0 mm | - | - | - |
| 1777277436 | 8.89° C | 60% | 1011.8 hPa | 0 mm | - | - | - |
| 1777274416 | 10.56° C | 54% | 1012 hPa | 0 mm | - | - | - |
| 1777272017 | 11.11° C | 53% | 1012.3 hPa | 0 mm | - | - | - |
| 1777266637 | 11.67° C | 50% | 1011.7 hPa | 0 mm | - | - | - |
| 1777266017 | 11.67° C | 50% | 1011.7 hPa | 0 mm | - | - | - |
| 1777261816 | 12.22° C | 48% | 1011.3 hPa | 0 mm | - | - | - |
| 1777260616 | 12.22° C | 48% | 1011 hPa | 0 mm | - | - | - |
| 1777258816 | 12.22° C | 47% | 1010.3 hPa | 0 mm | - | - | - |
| 1777254616 | 12.22° C | 48% | 1009.3 hPa | 0 mm | - | - | - |
| 1777252236 | 12.78° C | 48% | 1009.4 hPa | 0 mm | - | - | - |
| 1777251016 | 12.78° C | 50% | 1009.4 hPa | 0 mm | - | - | - |
| 1777245616 | 14.44° C | 38% | 1009.1 hPa | 0 mm | - | - | - |
| 1777245016 | 15° C | 36% | 1009 hPa | 0 mm | - | - | - |
| 1777244416 | 15° C | 37% | 1008.9 hPa | 0 mm | - | - | - |
| 1777242616 | 15° C | 38% | 1008.5 hPa | 0 mm | - | - | - |
| 1777242016 | 15.56° C | 37% | 1008.8 hPa | 0 mm | - | - | - |
| 1777240816 | 15° C | 38% | 1008.8 hPa | 0 mm | - | - | - |
* Rain latest hour (hover to see other rain measurements)
** Current wind speed in m/s (hover to see current wind gust speed)